createdAt,value
2018-10-03T00:00:35.979Z,98269.00
2018-10-03T00:03:07.800Z,98263.00
2018-10-03T00:05:39.558Z,98265.00
2018-10-03T00:08:11.227Z,98259.00
2018-10-03T00:10:43.085Z,98246.00
2018-10-03T00:13:15.597Z,98244.00
2018-10-03T00:15:47.417Z,98250.00
2018-10-03T00:18:19.082Z,98248.00
2018-10-03T00:20:50.879Z,98249.00
2018-10-03T00:23:22.789Z,98246.00
2018-10-03T00:25:54.465Z,98265.00
2018-10-03T00:28:26.245Z,98261.00
2018-10-03T00:30:58.158Z,98260.00
2018-10-03T00:33:29.962Z,98266.00
2018-10-03T00:36:01.709Z,98271.00
2018-10-03T00:38:33.444Z,98259.00
2018-10-03T00:41:05.240Z,98253.00
2018-10-03T00:43:37.410Z,98248.00
2018-10-03T00:46:09.496Z,98249.00
2018-10-03T00:48:41.297Z,98251.00
2018-10-03T00:51:13.201Z,98251.00
2018-10-03T00:53:44.944Z,98244.00
2018-10-03T00:56:16.676Z,98249.00
2018-10-03T00:58:48.445Z,98249.00
2018-10-03T01:01:20.115Z,98252.00
2018-10-03T01:03:52.041Z,98247.00
2018-10-03T01:06:23.927Z,98253.00
2018-10-03T01:08:55.580Z,98256.00
2018-10-03T01:11:27.358Z,98247.00
2018-10-03T01:13:59.094Z,98248.00
2018-10-03T01:16:30.769Z,98247.00
2018-10-03T01:19:02.608Z,98247.00
2018-10-03T01:21:34.480Z,98243.00
2018-10-03T01:24:06.521Z,98241.00
2018-10-03T01:26:38.332Z,98246.00
2018-10-03T01:29:10.164Z,98252.00
2018-10-03T01:31:41.940Z,98243.00
2018-10-03T01:34:13.582Z,98252.00
2018-10-03T01:36:45.329Z,98251.00
2018-10-03T01:39:16.997Z,98249.00
2018-10-03T01:41:48.860Z,98246.00
2018-10-03T01:44:20.618Z,98252.00
2018-10-03T01:46:52.293Z,98249.00
2018-10-03T01:49:24.059Z,98245.00
2018-10-03T01:51:55.994Z,98238.00
2018-10-03T01:54:27.784Z,98242.00
2018-10-03T01:56:59.521Z,98241.00
2018-10-03T01:59:31.201Z,98245.00
2018-10-03T02:02:03.102Z,98241.00
2018-10-03T02:04:34.919Z,98246.00
2018-10-03T02:07:06.784Z,98248.00
2018-10-03T02:09:38.619Z,98247.00
2018-10-03T02:12:10.470Z,98249.00
2018-10-03T02:14:42.343Z,98245.00
2018-10-03T02:17:14.095Z,98246.00
2018-10-03T02:19:45.798Z,98247.00
2018-10-03T02:22:17.613Z,98252.00
2018-10-03T02:24:49.295Z,98248.00
2018-10-03T02:27:21.421Z,98246.00
2018-10-03T02:29:53.230Z,98253.00
2018-10-03T02:32:25.078Z,98258.00
2018-10-03T02:34:56.741Z,98250.00
2018-10-03T02:37:28.479Z,98244.00
2018-10-03T02:40:00.162Z,98250.00
2018-10-03T02:42:32.026Z,98252.00
2018-10-03T02:45:03.987Z,98253.00
2018-10-03T02:47:35.742Z,98257.00
2018-10-03T02:50:07.732Z,98254.00
2018-10-03T02:52:39.576Z,98256.00
2018-10-03T02:55:11.319Z,98247.00
2018-10-03T02:57:43.336Z,98244.00
2018-10-03T03:00:15.229Z,98244.00
2018-10-03T03:02:47.017Z,98252.00
2018-10-03T03:05:18.763Z,98251.00
2018-10-03T03:07:50.600Z,98248.00
2018-10-03T03:10:22.363Z,98250.00
2018-10-03T03:12:54.020Z,98235.00
2018-10-03T03:15:25.798Z,98241.00
2018-10-03T03:17:57.655Z,98245.00
2018-10-03T03:20:29.609Z,98249.00
2018-10-03T03:23:01.398Z,98237.00
2018-10-03T03:25:33.179Z,98247.00
2018-10-03T03:28:05.017Z,98248.00
2018-10-03T03:30:36.759Z,98248.00
2018-10-03T03:33:08.427Z,98254.00
2018-10-03T03:35:40.384Z,98253.00
2018-10-03T03:38:12.361Z,98248.00
2018-10-03T03:40:44.052Z,98252.00
2018-10-03T03:43:15.950Z,98256.00
2018-10-03T03:45:47.713Z,98253.00
2018-10-03T03:48:19.712Z,98253.00
2018-10-03T03:50:51.455Z,98262.00
2018-10-03T03:53:23.287Z,98270.00
2018-10-03T03:55:55.051Z,98268.00
2018-10-03T03:58:26.840Z,98270.00
2018-10-03T04:00:58.690Z,98271.00
2018-10-03T04:03:30.625Z,98274.00
2018-10-03T04:06:02.505Z,98273.00
2018-10-03T04:08:34.153Z,98270.00
2018-10-03T04:11:06.065Z,98268.00
2018-10-03T04:13:37.982Z,98272.00
2018-10-03T04:16:09.947Z,98270.00
2018-10-03T04:18:41.805Z,98268.00
2018-10-03T04:21:13.592Z,98272.00
2018-10-03T04:23:45.341Z,98278.00
2018-10-03T04:26:17.239Z,98278.00
2018-10-03T04:28:48.953Z,98274.00
2018-10-03T04:31:20.685Z,98274.00
2018-10-03T04:33:52.373Z,98281.00
2018-10-03T04:36:24.105Z,98280.00
2018-10-03T04:38:57.242Z,98284.00
2018-10-03T04:41:29.072Z,98292.00
2018-10-03T04:44:00.823Z,98287.00
2018-10-03T04:46:32.897Z,98290.00
2018-10-03T04:49:04.770Z,98298.00
2018-10-03T04:51:36.432Z,98291.00
2018-10-03T04:54:08.371Z,98288.00
2018-10-03T04:56:40.234Z,98283.00
2018-10-03T04:59:11.921Z,98286.00
2018-10-03T05:01:43.774Z,98285.00
2018-10-03T05:04:15.610Z,98290.00
2018-10-03T05:06:47.465Z,98293.00
2018-10-03T05:09:19.142Z,98291.00
2018-10-03T05:11:50.810Z,98294.00
2018-10-03T05:14:22.758Z,98294.00
2018-10-03T05:16:54.643Z,98302.00
2018-10-03T05:19:26.385Z,98288.00
2018-10-03T05:21:58.058Z,98286.00
2018-10-03T05:24:29.921Z,98291.00
2018-10-03T05:27:01.668Z,98298.00
2018-10-03T05:29:33.505Z,98298.00
2018-10-03T05:32:05.373Z,98294.00
2018-10-03T05:34:37.042Z,98298.00
2018-10-03T05:37:08.995Z,98298.00
2018-10-03T05:39:40.775Z,98307.00
2018-10-03T05:42:12.509Z,98309.00
2018-10-03T05:44:44.182Z,98307.00
2018-10-03T05:47:16.059Z,98314.00
2018-10-03T05:49:47.796Z,98320.00
2018-10-03T05:52:19.465Z,98327.00
2018-10-03T05:54:51.285Z,98328.00
2018-10-03T05:57:22.961Z,98327.00
2018-10-03T05:59:54.766Z,98340.00
2018-10-03T06:02:26.716Z,98342.00
2018-10-03T06:04:58.459Z,98343.00
2018-10-03T06:07:30.194Z,98346.00
2018-10-03T06:10:02.080Z,98361.00
2018-10-03T06:12:34.159Z,98359.00
2018-10-03T06:15:06.495Z,98376.00
2018-10-03T06:17:38.265Z,98381.00
2018-10-03T06:20:10.358Z,98381.00
2018-10-03T06:22:42.110Z,98384.00
2018-10-03T06:25:14.079Z,98399.00
2018-10-03T06:27:45.825Z,98397.00
2018-10-03T06:30:17.683Z,98406.00
2018-10-03T06:32:49.425Z,98406.00
2018-10-03T06:35:21.106Z,98412.00
2018-10-03T06:37:52.958Z,98418.00
2018-10-03T06:40:24.950Z,98416.00
2018-10-03T06:42:56.790Z,98420.00
2018-10-03T06:45:28.704Z,98431.00
2018-10-03T06:48:00.514Z,98431.00
2018-10-03T06:50:32.349Z,98430.00
2018-10-03T06:53:04.010Z,98444.00
2018-10-03T06:55:35.790Z,98441.00
2018-10-03T06:58:07.529Z,98437.00
2018-10-03T07:00:39.492Z,98436.00
2018-10-03T07:03:11.154Z,98447.00
2018-10-03T07:05:42.867Z,98447.00
2018-10-03T07:08:14.762Z,98446.00
2018-10-03T07:10:46.735Z,98449.00
2018-10-03T07:13:18.393Z,98454.00
2018-10-03T07:15:50.212Z,98464.00
2018-10-03T07:18:22.042Z,98469.00
2018-10-03T07:20:53.779Z,98470.00
2018-10-03T07:23:25.564Z,98470.00
2018-10-03T07:25:57.555Z,98472.00
2018-10-03T07:28:29.466Z,98478.00
2018-10-03T07:31:01.146Z,98483.00
2018-10-03T07:33:33.044Z,98481.00
2018-10-03T07:36:05.143Z,98488.00
2018-10-03T07:38:36.901Z,98486.00
2018-10-03T07:41:08.807Z,98495.00
2018-10-03T07:43:40.594Z,98489.00
2018-10-03T07:46:12.517Z,98487.00
2018-10-03T07:48:44.241Z,98489.00
2018-10-03T07:51:16.022Z,98505.00
2018-10-03T07:53:47.770Z,98509.00
2018-10-03T07:56:19.724Z,98499.00
2018-10-03T07:58:51.479Z,98503.00
2018-10-03T08:01:23.270Z,98502.00
2018-10-03T08:03:55.215Z,98504.00
2018-10-03T08:06:26.869Z,98502.00
2018-10-03T08:08:58.539Z,98502.00
2018-10-03T08:11:30.389Z,98501.00
2018-10-03T08:14:02.171Z,98504.00
2018-10-03T08:16:34.127Z,98511.00
2018-10-03T08:19:06.008Z,98510.00
2018-10-03T08:21:37.738Z,98517.00
2018-10-03T08:24:09.742Z,98520.00
2018-10-03T08:26:41.581Z,98525.00
2018-10-03T08:29:13.321Z,98519.00
2018-10-03T08:31:45.270Z,98520.00
2018-10-03T08:34:17.169Z,98530.00
2018-10-03T08:36:49.031Z,98521.00
2018-10-03T08:39:20.791Z,98517.00
2018-10-03T08:41:52.544Z,98513.00
2018-10-03T08:44:24.529Z,98516.00
2018-10-03T08:46:56.251Z,98517.00
2018-10-03T08:49:28.129Z,98524.00
2018-10-03T08:51:59.912Z,98517.00
2018-10-03T08:54:31.729Z,98518.00
2018-10-03T08:57:03.559Z,98510.00
2018-10-03T08:59:35.369Z,98517.00
2018-10-03T09:02:16.902Z,98526.00
2018-10-03T09:04:58.308Z,98525.00
2018-10-03T09:07:32.047Z,98528.00
2018-10-03T09:10:03.993Z,98535.00
2018-10-03T09:12:35.673Z,98535.00
2018-10-03T09:15:07.632Z,98539.00
2018-10-03T09:17:39.673Z,98537.00
2018-10-03T09:20:11.435Z,98539.00
2018-10-03T09:22:43.097Z,98539.00
2018-10-03T09:25:14.937Z,98543.00
2018-10-03T09:27:46.744Z,98540.00
2018-10-03T09:30:18.580Z,98546.00
2018-10-03T09:32:50.688Z,98544.00
2018-10-03T09:35:22.493Z,98541.00
2018-10-03T09:37:54.562Z,98551.00
2018-10-03T09:40:26.342Z,98547.00
2018-10-03T09:42:58.086Z,98551.00
2018-10-03T09:45:29.835Z,98548.00
2018-10-03T09:48:01.701Z,98546.00
2018-10-03T09:50:33.485Z,98545.00
2018-10-03T09:53:05.229Z,98548.00
2018-10-03T09:55:37.076Z,98547.00
2018-10-03T09:58:09.090Z,98549.00
2018-10-03T10:00:45.736Z,98544.00
2018-10-03T10:03:17.709Z,98555.00
2018-10-03T10:05:49.459Z,98556.00
2018-10-03T10:08:21.302Z,98555.00
2018-10-03T10:10:53.088Z,98550.00
2018-10-03T10:13:24.825Z,98556.00
2018-10-03T10:15:56.590Z,98562.00
2018-10-03T10:18:28.363Z,98555.00
2018-10-03T10:21:00.200Z,98557.00
2018-10-03T10:23:31.975Z,98565.00
2018-10-03T10:26:03.946Z,98566.00
2018-10-03T10:28:35.688Z,98575.00
2018-10-03T10:31:07.565Z,98574.00
2018-10-03T10:33:39.390Z,98570.00
2018-10-03T10:36:11.065Z,98563.00
2018-10-03T10:38:42.744Z,98563.00
2018-10-03T10:41:14.821Z,98558.00
2018-10-03T10:43:46.433Z,98561.00
2018-10-03T10:46:18.321Z,98563.00
2018-10-03T10:48:50.157Z,98564.00
2018-10-03T10:51:21.838Z,98567.00
2018-10-03T10:53:53.679Z,98566.00
2018-10-03T10:56:25.430Z,98566.00
2018-10-03T10:58:57.111Z,98564.00
2018-10-03T11:01:28.970Z,98572.00
2018-10-03T11:04:00.801Z,98562.00
2018-10-03T11:06:32.689Z,98568.00
2018-10-03T11:09:05.310Z,98568.00
2018-10-03T11:11:37.066Z,98576.00
2018-10-03T11:14:09.051Z,98580.00
2018-10-03T11:16:40.753Z,98582.00
2018-10-03T11:19:12.690Z,98577.00
2018-10-03T11:21:44.484Z,98580.00
2018-10-03T11:24:16.509Z,98578.00
2018-10-03T11:26:48.276Z,98575.00
2018-10-03T11:29:20.146Z,98574.00
2018-10-03T11:31:51.931Z,98569.00
2018-10-03T11:34:23.675Z,98563.00
2018-10-03T11:36:55.451Z,98565.00
2018-10-03T11:39:27.317Z,98568.00
2018-10-03T11:41:59.153Z,98569.00
2018-10-03T11:44:31.006Z,98569.00
2018-10-03T11:47:02.980Z,98570.00
2018-10-03T11:49:34.762Z,98568.00
2018-10-03T11:52:06.706Z,98565.00
2018-10-03T11:54:38.581Z,98562.00
2018-10-03T11:57:10.822Z,98562.00
2018-10-03T11:59:42.487Z,98556.00
2018-10-03T12:02:14.150Z,98549.00
2018-10-03T12:04:45.925Z,98556.00
2018-10-03T12:07:17.786Z,98561.00
2018-10-03T12:09:49.664Z,98568.00
2018-10-03T12:12:21.577Z,98557.00
2018-10-03T12:14:53.441Z,98551.00
2018-10-03T12:17:25.226Z,98544.00
2018-10-03T12:19:57.062Z,98541.00
2018-10-03T12:22:28.721Z,98540.00
2018-10-03T12:25:00.521Z,98548.00
2018-10-03T12:27:32.370Z,98551.00
2018-10-03T12:30:04.333Z,98549.00
2018-10-03T12:32:36.178Z,98546.00
2018-10-03T12:35:07.947Z,98542.00
2018-10-03T12:37:39.777Z,98538.00
2018-10-03T12:40:11.573Z,98543.00
2018-10-03T12:42:43.302Z,98552.00
2018-10-03T12:45:15.118Z,98555.00
2018-10-03T12:47:46.841Z,98552.00
2018-10-03T12:50:18.729Z,98547.00
2018-10-03T12:52:50.382Z,98547.00
2018-10-03T12:55:22.434Z,98548.00
2018-10-03T12:57:54.173Z,98549.00
2018-10-03T13:00:33.733Z,98548.00
2018-10-03T13:03:05.675Z,98553.00
2018-10-03T13:05:37.525Z,98543.00
2018-10-03T13:08:09.301Z,98546.00
2018-10-03T13:10:40.972Z,98555.00
2018-10-03T13:13:12.836Z,98551.00
2018-10-03T13:15:44.495Z,98551.00
2018-10-03T13:18:16.322Z,98552.00
2018-10-03T13:20:48.022Z,98556.00
2018-10-03T13:23:19.853Z,98558.00
2018-10-03T13:25:51.834Z,98555.00
2018-10-03T13:28:23.427Z,98555.00
2018-10-03T13:30:55.333Z,98541.00
2018-10-03T13:33:27.074Z,98554.00
2018-10-03T13:35:58.866Z,98556.00
2018-10-03T13:38:30.619Z,98559.00
2018-10-03T13:41:02.505Z,98552.00
2018-10-03T13:43:34.351Z,98561.00
2018-10-03T13:46:06.318Z,98566.00
2018-10-03T13:48:38.062Z,98568.00
2018-10-03T13:51:10.019Z,98575.00
2018-10-03T13:53:41.675Z,98568.00
2018-10-03T13:56:13.345Z,98574.00
2018-10-03T13:58:45.081Z,98577.00
2018-10-03T14:01:16.742Z,98572.00
2018-10-03T14:03:48.499Z,98570.00
2018-10-03T14:06:20.250Z,98572.00
2018-10-03T14:08:51.920Z,98572.00
2018-10-03T14:11:23.694Z,98571.00
2018-10-03T14:13:55.531Z,98573.00
2018-10-03T14:16:27.423Z,98574.00
2018-10-03T14:18:59.178Z,98571.00
2018-10-03T14:21:31.109Z,98584.00
2018-10-03T14:24:02.786Z,98577.00
2018-10-03T14:26:34.534Z,98579.00
2018-10-03T14:29:06.304Z,98577.00
2018-10-03T14:31:38.166Z,98577.00
2018-10-03T14:34:10.033Z,98577.00
2018-10-03T14:36:41.869Z,98577.00
2018-10-03T14:39:13.765Z,98574.00
2018-10-03T14:41:45.533Z,98572.00
2018-10-03T14:44:17.374Z,98588.00
2018-10-03T14:46:49.365Z,98584.00
2018-10-03T14:49:21.194Z,98582.00
2018-10-03T14:51:52.953Z,98586.00
2018-10-03T14:54:24.882Z,98589.00
2018-10-03T14:56:56.661Z,98586.00
2018-10-03T14:59:28.426Z,98600.00
2018-10-03T15:02:00.187Z,98603.00
2018-10-03T15:04:31.863Z,98601.00
2018-10-03T15:07:03.798Z,98600.00
2018-10-03T15:09:35.485Z,98597.00
2018-10-03T15:12:07.283Z,98598.00
2018-10-03T15:14:39.081Z,98601.00
2018-10-03T15:17:10.861Z,98602.00
2018-10-03T15:19:42.693Z,98610.00
2018-10-03T15:22:14.493Z,98607.00
2018-10-03T15:24:46.265Z,98607.00
2018-10-03T15:27:18.108Z,98616.00
2018-10-03T15:29:49.786Z,98623.00
2018-10-03T15:32:21.597Z,98626.00
2018-10-03T15:34:53.257Z,98625.00
2018-10-03T15:37:25.026Z,98620.00
2018-10-03T15:39:56.876Z,98628.00
2018-10-03T15:42:28.697Z,98624.00
2018-10-03T15:45:00.522Z,98621.00
2018-10-03T15:47:32.273Z,98626.00
2018-10-03T15:50:04.195Z,98625.00
2018-10-03T15:52:36.004Z,98631.00
2018-10-03T15:55:07.966Z,98642.00
2018-10-03T15:57:39.813Z,98644.00
2018-10-03T16:00:11.592Z,98655.00
2018-10-03T16:02:43.337Z,98662.00
2018-10-03T16:05:15.372Z,98675.00
2018-10-03T16:07:47.147Z,98678.00
2018-10-03T16:10:19.086Z,98682.00
2018-10-03T16:12:50.856Z,98682.00
2018-10-03T16:15:22.754Z,98681.00
2018-10-03T16:17:55.129Z,98688.00
2018-10-03T16:20:26.853Z,98691.00
2018-10-03T16:22:58.542Z,98691.00
2018-10-03T16:25:30.373Z,98691.00
2018-10-03T16:28:02.269Z,98701.00
2018-10-03T16:30:33.911Z,98702.00
2018-10-03T16:33:05.758Z,98712.00
2018-10-03T16:35:37.470Z,98714.00
2018-10-03T16:38:09.186Z,98713.00
2018-10-03T16:40:41.138Z,98716.00
2018-10-03T16:43:12.794Z,98717.00
2018-10-03T16:45:44.468Z,98714.00
2018-10-03T16:48:16.304Z,98722.00
2018-10-03T16:50:47.970Z,98724.00
2018-10-03T16:53:19.650Z,98725.00
2018-10-03T16:55:51.583Z,98727.00
2018-10-03T16:58:23.249Z,98726.00
2018-10-03T17:00:55.017Z,98734.00
2018-10-03T17:03:26.863Z,98737.00
2018-10-03T17:05:58.521Z,98740.00
2018-10-03T17:08:30.194Z,98745.00
2018-10-03T17:11:02.145Z,98747.00
2018-10-03T17:13:33.927Z,98754.00
2018-10-03T17:16:05.669Z,98755.00
2018-10-03T17:18:37.430Z,98755.00
2018-10-03T17:21:09.403Z,98759.00
2018-10-03T17:23:41.170Z,98760.00
2018-10-03T17:26:12.997Z,98761.00
2018-10-03T17:28:44.692Z,98771.00
2018-10-03T17:31:16.437Z,98782.00
2018-10-03T17:33:48.190Z,98783.00
2018-10-03T17:36:19.944Z,98789.00
2018-10-03T17:38:51.922Z,98799.00
2018-10-03T17:41:23.756Z,98796.00
2018-10-03T17:43:55.428Z,98803.00
2018-10-03T17:46:27.174Z,98807.00
2018-10-03T17:48:59.099Z,98809.00
2018-10-03T17:51:30.805Z,98810.00
2018-10-03T17:54:02.551Z,98803.00
2018-10-03T17:56:34.318Z,98801.00
2018-10-03T17:59:06.309Z,98802.00
2018-10-03T18:01:41.933Z,98807.00
2018-10-03T18:04:13.711Z,98816.00
2018-10-03T18:06:45.558Z,98822.00
2018-10-03T18:09:17.293Z,98823.00
2018-10-03T18:11:49.082Z,98831.00
2018-10-03T18:14:21.043Z,98832.00
2018-10-03T18:16:52.789Z,98838.00
2018-10-03T18:19:24.579Z,98843.00
2018-10-03T18:21:56.350Z,98839.00
2018-10-03T18:24:28.166Z,98844.00
2018-10-03T18:27:00.061Z,98849.00
2018-10-03T18:29:32.021Z,98849.00
2018-10-03T18:32:03.826Z,98848.00
2018-10-03T18:34:35.644Z,98851.00
2018-10-03T18:37:07.519Z,98851.00
2018-10-03T18:39:39.269Z,98854.00
2018-10-03T18:42:11.110Z,98856.00
2018-10-03T18:44:43.052Z,98861.00
2018-10-03T18:47:14.844Z,98860.00
2018-10-03T18:49:46.597Z,98854.00
2018-10-03T18:52:18.461Z,98857.00
2018-10-03T18:54:50.214Z,98863.00
2018-10-03T18:57:21.988Z,98859.00
2018-10-03T18:59:53.809Z,98861.00
2018-10-03T19:02:25.594Z,98863.00
2018-10-03T19:04:57.355Z,98870.00
2018-10-03T19:07:29.193Z,98865.00
2018-10-03T19:10:00.857Z,98868.00
2018-10-03T19:12:32.614Z,98877.00
2018-10-03T19:15:04.934Z,98880.00
2018-10-03T19:17:36.845Z,98883.00
2018-10-03T19:20:08.745Z,98884.00
2018-10-03T19:22:40.600Z,98882.00
2018-10-03T19:25:12.633Z,98881.00
2018-10-03T19:27:44.293Z,98880.00
2018-10-03T19:30:15.961Z,98880.00
2018-10-03T19:32:47.806Z,98879.00
2018-10-03T19:35:19.558Z,98881.00
2018-10-03T19:37:51.202Z,98882.00
2018-10-03T19:40:22.974Z,98892.00
2018-10-03T19:42:54.791Z,98892.00
2018-10-03T19:45:26.618Z,98895.00
2018-10-03T19:47:58.623Z,98899.00
2018-10-03T19:50:30.435Z,98899.00
2018-10-03T19:53:02.036Z,98899.00
2018-10-03T19:55:33.757Z,98893.00
2018-10-03T19:58:05.591Z,98895.00
2018-10-03T20:00:37.390Z,98895.00
2018-10-03T20:03:09.134Z,98898.00
2018-10-03T20:05:41.009Z,98899.00
2018-10-03T20:08:12.870Z,98905.00
2018-10-03T20:10:44.697Z,98910.00
2018-10-03T20:13:16.449Z,98912.00
2018-10-03T20:15:48.318Z,98912.00
2018-10-03T20:18:20.111Z,98916.00
2018-10-03T20:20:52.152Z,98913.00
2018-10-03T20:23:23.913Z,98910.00
2018-10-03T20:25:56.145Z,98913.00
2018-10-03T20:28:28.015Z,98916.00
2018-10-03T20:30:59.830Z,98913.00
2018-10-03T20:33:31.904Z,98914.00
2018-10-03T20:36:03.657Z,98910.00
2018-10-03T20:38:35.858Z,98916.00
2018-10-03T20:41:07.637Z,98912.00
2018-10-03T20:43:39.416Z,98918.00
2018-10-03T20:46:11.082Z,98920.00
2018-10-03T20:48:42.922Z,98919.00
2018-10-03T20:51:14.651Z,98921.00
2018-10-03T20:53:51.051Z,98918.00
2018-10-03T20:56:22.933Z,98921.00
2018-10-03T20:58:54.591Z,98919.00
2018-10-03T21:01:26.230Z,98923.00
2018-10-03T21:03:58.239Z,98927.00
2018-10-03T21:06:33.363Z,98934.00
2018-10-03T21:09:06.950Z,98934.00
2018-10-03T21:11:38.653Z,98938.00
2018-10-03T21:14:10.468Z,98939.00
2018-10-03T21:16:42.205Z,98937.00
2018-10-03T21:19:13.868Z,98942.00
2018-10-03T21:21:45.541Z,98942.00
2018-10-03T21:24:17.526Z,98943.00
2018-10-03T21:26:49.381Z,98939.00
2018-10-03T21:29:21.117Z,98936.00
2018-10-03T21:31:52.880Z,98939.00
2018-10-03T21:34:24.524Z,98943.00
2018-10-03T21:36:56.189Z,98936.00
2018-10-03T21:39:27.932Z,98936.00
2018-10-03T21:41:59.594Z,98946.00
2018-10-03T21:44:31.257Z,98944.00
2018-10-03T21:47:03.009Z,98943.00
2018-10-03T21:49:34.932Z,98943.00
2018-10-03T21:52:06.645Z,98954.00
2018-10-03T21:54:38.420Z,98951.00
2018-10-03T21:57:10.154Z,98950.00
2018-10-03T21:59:41.822Z,98952.00
2018-10-03T22:02:13.664Z,98954.00
2018-10-03T22:04:45.410Z,98949.00
2018-10-03T22:07:17.096Z,98951.00
2018-10-03T22:09:48.834Z,98950.00
2018-10-03T22:12:20.493Z,98949.00
2018-10-03T22:14:52.170Z,98946.00
2018-10-03T22:17:23.945Z,98949.00
2018-10-03T22:19:57.321Z,98949.00
2018-10-03T22:22:29.028Z,98953.00
2018-10-03T22:25:00.890Z,98954.00
2018-10-03T22:27:32.679Z,98956.00
2018-10-03T22:30:04.686Z,98955.00
2018-10-03T22:32:36.504Z,98950.00
2018-10-03T22:35:08.483Z,98953.00
2018-10-03T22:37:40.151Z,98957.00
2018-10-03T22:40:11.801Z,98955.00
2018-10-03T22:42:43.642Z,98966.00
2018-10-03T22:45:15.524Z,98964.00
2018-10-03T22:47:47.251Z,98961.00
2018-10-03T22:50:19.164Z,98958.00
2018-10-03T22:52:51.014Z,98952.00
2018-10-03T22:55:22.847Z,98953.00
2018-10-03T22:57:54.610Z,98956.00
2018-10-03T23:00:26.286Z,98962.00
2018-10-03T23:02:58.133Z,98963.00
2018-10-03T23:05:29.884Z,98964.00
2018-10-03T23:08:01.645Z,98963.00
2018-10-03T23:10:33.515Z,98961.00
2018-10-03T23:13:05.299Z,98970.00
2018-10-03T23:15:37.153Z,98967.00
2018-10-03T23:18:09.110Z,98970.00
2018-10-03T23:20:41.060Z,98972.00
2018-10-03T23:23:12.844Z,98976.00
2018-10-03T23:25:44.580Z,98978.00
2018-10-03T23:28:16.329Z,98973.00
2018-10-03T23:30:47.993Z,98976.00
2018-10-03T23:33:19.676Z,98982.00
2018-10-03T23:35:51.542Z,98986.00
2018-10-03T23:38:23.270Z,98986.00
2018-10-03T23:40:55.047Z,98991.00
2018-10-03T23:43:26.886Z,98983.00
2018-10-03T23:45:58.667Z,98986.00
2018-10-03T23:48:30.541Z,98987.00
2018-10-03T23:51:02.393Z,98983.00
2018-10-03T23:53:34.273Z,98990.00
2018-10-03T23:56:06.125Z,98983.00
2018-10-03T23:58:37.957Z,98984.00
